Pine Lake, Washington
Current Conditions -  °F | °C
As of 11:53 PM on Thursday 23 Oct 2014 (Local Time) from KRNT Reporting Station
Overcast Overcast  
Wind Chill: 50°   Ceiling: 9000
Heat Index: 50°   Visibility: 10mi
Dew Point: 47°   Wind: 5mph
Humidity: 89%   Direction: 120°ESE
Pressure: 30"   Gusts: NA
Location:  47.4953°N, 121.984°W
Report Text: KRNT 240653Z 12004KT 10SM FEW060 OVC090 10/08 A3000 RMK AO2 SLP165 T01000083
Loading
Personal Weather Stations






























Interactive Weather Map
Tropical Storm Tracking
New forecast layout! Learn more

10-Day Weather Forecast

Advertisements
Track Severe Weather on mobile